Time;durP1;ratioP1;P1;durP2;ratioP2;P2;SDS_P1;SDS_P2;PMS_P1;PMS_P2;Temp;Humidity;BMP_temperature;BMP_pressure;BME280_temperature;BME280_humidity;BME280_pressure;Samples;Min_cycle;Max_cycle;Signal;HPM_P1;HPM_P2
2022/12/08 00:01:53;;;;;;;43.92;30.30;;;;;;;;;;5032812;28;20511;-86
2022/12/08 00:04:19;;;;;;;52.60;36.58;;;;;;;;;;5032783;28;20119;-84
2022/12/08 00:09:35;;;;;;;53.13;35.33;;;;;;;;;;5032601;28;20052;-85
2022/12/08 00:12:02;;;;;;;47.88;34.38;;;;;;;;;;5014915;28;20030;-87
2022/12/08 00:14:29;;;;;;;60.38;38.05;;;;;;;;;;5014888;28;20017;-87
2022/12/08 00:16:56;;;;;;;58.08;40.38;;;;;;;;;;5014855;28;20022;-84
2022/12/08 00:19:22;;;;;;;58.88;42.80;;;;;;;;;;5014779;28;20032;-86
2022/12/08 00:21:49;;;;;;;61.47;43.38;;;;;;;;;;5014932;28;20029;-88
2022/12/08 00:24:16;;;;;;;57.50;40.28;;;;;;;;;;5032502;28;20033;-83
2022/12/08 00:26:42;;;;;;;59.15;42.20;;;;;;;;;;5014887;28;20048;-86
2022/12/08 00:29:08;;;;;;;58.05;41.47;;;;;;;;;;5032327;28;20385;-85
2022/12/08 00:31:34;;;;;;;66.00;46.15;;;;;;;;;;5032462;28;20024;-87
2022/12/08 00:34:01;;;;;;;68.88;46.60;;;;;;;;;;5032554;28;20028;-86
2022/12/08 00:36:27;;;;;;;75.07;50.83;;;;;;;;;;5032369;28;20021;-84
2022/12/08 00:38:53;;;;;;;71.63;48.55;;;;;;;;;;5032519;28;20040;-83
2022/12/08 00:44:08;;;;;;;57.50;38.53;;;;;;;;;;5032599;28;20092;-85
2022/12/08 00:46:35;;;;;;;50.53;36.22;;;;;;;;;;5014656;28;20026;-84
2022/12/08 00:49:01;;;;;;;52.78;39.03;;;;;;;;;;5033613;28;20029;-85
2022/12/08 00:51:27;;;;;;;29.35;22.70;;;;;;;;;;5036267;28;20032;-85
2022/12/08 00:53:53;;;;;;;33.63;22.50;;;;;;;;;;5018557;28;20112;-84
2022/12/08 00:56:19;;;;;;;30.65;21.70;;;;;;;;;;5018358;28;20476;-86
2022/12/08 00:58:45;;;;;;;29.48;21.38;;;;;;;;;;5036319;28;20033;-84
2022/12/08 01:01:12;;;;;;;35.78;23.77;;;;;;;;;;5036030;28;20025;-84
2022/12/08 01:03:38;;;;;;;42.17;28.38;;;;;;;;;;5036033;28;20050;-87
2022/12/08 01:06:05;;;;;;;40.90;27.65;;;;;;;;;;5036033;28;20022;-83
2022/12/08 01:08:31;;;;;;;36.58;25.73;;;;;;;;;;5018323;28;20033;-87
2022/12/08 01:11:02;;;;;;;39.65;26.38;;;;;;;;;;5018398;28;20481;-84
2022/12/08 01:13:28;;;;;;;37.15;24.48;;;;;;;;;;5018191;28;20029;-86
2022/12/08 01:15:54;;;;;;;23.50;17.63;;;;;;;;;;5035995;28;20053;-84
2022/12/08 01:18:21;;;;;;;20.73;16.55;;;;;;;;;;5035877;28;20520;-87
2022/12/08 01:20:47;;;;;;;27.95;16.75;;;;;;;;;;5035853;28;20104;-86
2022/12/08 01:23:13;;;;;;;21.90;16.20;;;;;;;;;;5018150;28;20036;-85
2022/12/08 01:25:39;;;;;;;22.23;15.63;;;;;;;;;;5017955;28;20535;-84
2022/12/08 01:28:05;;;;;;;22.85;16.70;;;;;;;;;;5017868;28;20076;-86
2022/12/08 01:30:31;;;;;;;22.70;16.65;;;;;;;;;;5017815;28;20030;-87
2022/12/08 01:32:57;;;;;;;22.00;16.45;;;;;;;;;;5017970;28;20021;-87
2022/12/08 01:35:24;;;;;;;20.17;15.82;;;;;;;;;;5035216;28;20156;-83
2022/12/08 01:37:50;;;;;;;22.05;14.85;;;;;;;;;;5035603;28;20026;-87
2022/12/08 01:40:16;;;;;;;22.27;15.90;;;;;;;;;;5035454;28;20058;-87
2022/12/08 01:42:42;;;;;;;32.90;21.33;;;;;;;;;;5017686;28;20034;-84
2022/12/08 01:45:20;;;;;;;27.17;19.95;;;;;;;;;;5035485;28;20026;-87
2022/12/08 01:47:49;;;;;;;28.45;18.38;;;;;;;;;;5035101;28;20072;-85
2022/12/08 01:50:17;;;;;;;22.25;15.57;;;;;;;;;;5034972;28;20551;-85
2022/12/08 01:52:47;;;;;;;20.77;15.32;;;;;;;;;;5035060;28;20339;-87
2022/12/08 01:55:32;;;;;;;24.10;16.65;;;;;;;;;;5035062;28;20029;-88
2022/12/08 01:58:02;;;;;;;21.88;15.13;;;;;;;;;;5035007;28;20030;-86
2022/12/08 02:00:28;;;;;;;19.33;14.98;;;;;;;;;;5034744;28;20106;-84
2022/12/08 02:02:57;;;;;;;24.25;15.35;;;;;;;;;;5016950;28;20050;-87
2022/12/08 02:05:25;;;;;;;20.00;14.68;;;;;;;;;;5034964;28;20081;-84
2022/12/08 02:07:51;;;;;;;21.90;15.48;;;;;;;;;;5034705;28;20044;-87
2022/12/08 02:10:19;;;;;;;23.58;16.45;;;;;;;;;;5034995;28;20025;-85
2022/12/08 02:12:46;;;;;;;23.35;15.68;;;;;;;;;;5034880;28;20045;-87
2022/12/08 02:15:12;;;;;;;23.10;16.65;;;;;;;;;;5017070;28;20049;-86
2022/12/08 02:17:57;;;;;;;22.48;17.13;;;;;;;;;;5034983;28;20551;-87
2022/12/08 02:20:30;;;;;;;25.35;16.45;;;;;;;;;;5016971;28;20033;-86
2022/12/08 02:22:59;;;;;;;23.40;16.73;;;;;;;;;;5034760;28;20022;-83
2022/12/08 02:25:44;;;;;;;20.77;15.35;;;;;;;;;;5034560;28;20021;-87
2022/12/08 02:28:10;;;;;;;;;;;;;;;;;;5034868;28;20021;-85
2022/12/08 02:30:46;;;;;;;23.98;16.17;;;;;;;;;;5016826;28;19905;-86
2022/12/08 02:33:30;;;;;;;24.58;17.33;;;;;;;;;;5034436;28;20053;-87
2022/12/08 02:35:57;;;;;;;;;;;;;;;;;;5034855;28;20041;-85
2022/12/08 02:38:29;;;;;;;25.38;19.10;;;;;;;;;;5034464;28;19905;-83
2022/12/08 02:41:14;;;;;;;28.70;20.95;;;;;;;;;;5016624;28;20127;-86
2022/12/08 02:43:40;;;;;;;;;;;;;;;;;;5034527;28;20026;-87
2022/12/08 02:46:10;;;;;;;22.80;15.50;;;;;;;;;;5016543;28;19928;-86
2022/12/08 02:48:36;;;;;;;22.38;15.57;;;;;;;;;;5034052;28;20373;-86
2022/12/08 02:51:02;;;;;;;22.33;15.32;;;;;;;;;;5016474;28;20080;-86
2022/12/08 02:53:29;;;;;;;19.90;14.85;;;;;;;;;;5016390;28;20028;-87
2022/12/08 02:55:59;;;;;;;20.55;15.10;;;;;;;;;;5033802;28;20018;-84
2022/12/08 02:58:44;;;;;;;23.10;16.45;;;;;;;;;;5033953;28;20021;-87
2022/12/08 03:01:10;;;;;;;;;;;;;;;;;;5034521;28;20116;-85
2022/12/08 03:03:55;;;;;;;23.80;15.15;;;;;;;;;;5033679;28;19967;-84
2022/12/08 03:06:24;;;;;;;22.92;16.05;;;;;;;;;;5033772;28;20029;-86
2022/12/08 03:09:09;;;;;;;28.88;18.05;;;;;;;;;;5033782;28;20036;-87
2022/12/08 03:11:41;;;;;;;29.05;19.85;;;;;;;;;;5033147;28;20108;-85
2022/12/08 03:14:09;;;;;;;25.23;18.40;;;;;;;;;;5015990;28;20031;-86
2022/12/08 03:16:38;;;;;;;28.40;20.58;;;;;;;;;;5033746;28;20021;-85
2022/12/08 03:19:22;;;;;;;27.30;19.42;;;;;;;;;;5033440;28;20084;-84
2022/12/08 03:22:01;;;;;;;26.13;19.35;;;;;;;;;;5015794;28;20025;-84
2022/12/08 03:24:28;;;;;;;31.15;20.95;;;;;;;;;;5033313;28;20500;-85
2022/12/08 03:26:59;;;;;;;30.38;22.20;;;;;;;;;;5033571;28;20047;-84
2022/12/08 03:29:25;;;;;;;28.67;20.85;;;;;;;;;;5033171;28;20501;-83
2022/12/08 03:31:54;;;;;;;27.23;18.85;;;;;;;;;;5033337;28;20022;-84
2022/12/08 03:34:21;;;;;;;26.90;18.88;;;;;;;;;;5033177;28;20469;-87
2022/12/08 03:36:47;;;;;;;25.20;18.27;;;;;;;;;;5033365;28;20026;-86
2022/12/08 03:39:13;;;;;;;28.10;19.77;;;;;;;;;;5033142;28;20030;-84
2022/12/08 03:41:39;;;;;;;27.80;17.73;;;;;;;;;;5015426;28;20069;-83
2022/12/08 03:44:06;;;;;;;28.83;19.60;;;;;;;;;;5033236;28;20021;-86
2022/12/08 03:46:32;;;;;;;25.95;18.08;;;;;;;;;;5032827;28;20104;-88
2022/12/08 03:48:58;;;;;;;26.95;19.73;;;;;;;;;;5033081;28;20538;-84
2022/12/08 03:51:26;;;;;;;29.17;18.85;;;;;;;;;;5032914;28;20034;-86
2022/12/08 03:53:52;;;;;;;28.15;18.73;;;;;;;;;;5015258;28;20056;-87
2022/12/08 03:56:37;;;;;;;28.42;20.95;;;;;;;;;;5015251;28;20022;-84
2022/12/08 03:59:03;;;;;;;;;;;;;;;;;;5015604;28;20021;-84
2022/12/08 04:01:29;;;;;;;28.73;18.52;;;;;;;;;;5015133;28;19912;-86
2022/12/08 04:03:55;;;;;;;24.88;16.92;;;;;;;;;;5032668;28;20045;-84
2022/12/08 04:06:21;;;;;;;23.05;17.38;;;;;;;;;;5032587;28;20500;-86
2022/12/08 04:08:48;;;;;;;25.15;17.88;;;;;;;;;;5014916;28;20713;-87
2022/12/08 04:11:14;;;;;;;26.02;17.05;;;;;;;;;;5015046;28;20511;-85
2022/12/08 04:13:42;;;;;;;25.90;17.05;;;;;;;;;;5032774;28;20021;-86
2022/12/08 04:16:08;;;;;;;24.17;16.98;;;;;;;;;;5032568;28;20496;-88
2022/12/08 04:18:35;;;;;;;34.17;22.42;;;;;;;;;;5014917;28;20112;-85
2022/12/08 04:21:01;;;;;;;39.10;22.83;;;;;;;;;;5032755;28;20508;-83
2022/12/08 04:23:27;;;;;;;31.95;20.83;;;;;;;;;;5032552;28;20037;-86
2022/12/08 04:25:54;;;;;;;26.15;19.58;;;;;;;;;;5032712;28;20029;-87
2022/12/08 04:28:20;;;;;;;31.25;21.67;;;;;;;;;;5014694;28;20385;-88
2022/12/08 04:30:47;;;;;;;29.42;19.92;;;;;;;;;;5032633;28;20025;-85
2022/12/08 04:33:13;;;;;;;25.83;17.65;;;;;;;;;;5032533;28;20060;-83
2022/12/08 04:35:39;;;;;;;27.17;17.80;;;;;;;;;;5014775;28;20029;-84
2022/12/08 04:38:06;;;;;;;24.55;18.40;;;;;;;;;;5014806;28;20068;-85
2022/12/08 04:40:32;;;;;;;26.95;18.58;;;;;;;;;;5032211;28;20053;-89
2022/12/08 04:42:58;;;;;;;27.27;19.95;;;;;;;;;;5032517;28;20101;-84
2022/12/08 04:45:24;;;;;;;26.63;18.67;;;;;;;;;;5032243;28;20385;-88
2022/12/08 04:47:50;;;;;;;30.08;20.13;;;;;;;;;;5014618;28;20418;-88
2022/12/08 04:50:16;;;;;;;24.48;17.58;;;;;;;;;;5014605;28;20026;-83
2022/12/08 04:52:42;;;;;;;35.60;23.92;;;;;;;;;;5032231;28;20022;-84
2022/12/08 04:55:09;;;;;;;45.53;33.28;;;;;;;;;;5020052;28;20030;-88
2022/12/08 04:57:35;;;;;;;30.67;20.55;;;;;;;;;;4995599;28;20067;-85
2022/12/08 05:00:01;;;;;;;65.03;45.50;;;;;;;;;;5032102;28;20132;-86
2022/12/08 05:02:27;;;;;;;35.25;23.30;;;;;;;;;;5031526;28;20033;-87
2022/12/08 05:04:53;;;;;;;50.15;32.33;;;;;;;;;;5032084;28;20032;-87
2022/12/08 05:07:19;;;;;;;135.38;101.88;;;;;;;;;;5031220;28;20093;-85
2022/12/08 05:09:45;;;;;;;44.80;32.75;;;;;;;;;;5015010;28;20556;-85
2022/12/08 05:12:11;;;;;;;30.92;22.33;;;;;;;;;;5012528;28;20023;-86
2022/12/08 05:14:37;;;;;;;29.27;21.02;;;;;;;;;;5025245;28;20022;-86
2022/12/08 05:17:04;;;;;;;29.58;19.73;;;;;;;;;;5027661;28;20159;-88
2022/12/08 05:19:30;;;;;;;26.02;17.88;;;;;;;;;;4996901;28;20022;-86
2022/12/08 05:21:56;;;;;;;29.45;19.83;;;;;;;;;;5012191;28;20048;-86
2022/12/08 05:24:22;;;;;;;32.75;22.45;;;;;;;;;;5012254;28;20119;-84
2022/12/08 05:26:48;;;;;;;34.08;24.15;;;;;;;;;;5029280;28;20029;-85
2022/12/08 05:29:14;;;;;;;29.35;21.67;;;;;;;;;;5012203;28;20096;-84
2022/12/08 05:31:40;;;;;;;32.53;23.38;;;;;;;;;;4994383;28;20018;-85
2022/12/08 05:34:06;;;;;;;24.80;18.67;;;;;;;;;;4994704;28;20108;-88
2022/12/08 05:36:32;;;;;;;31.30;24.25;;;;;;;;;;5015615;28;20018;-85
2022/12/08 05:38:58;;;;;;;25.10;20.30;;;;;;;;;;5015603;28;20438;-84
2022/12/08 05:41:25;;;;;;;25.27;16.17;;;;;;;;;;5015703;28;20034;-86
2022/12/08 05:43:51;;;;;;;19.45;13.82;;;;;;;;;;4997874;28;20026;-86
2022/12/08 05:46:17;;;;;;;22.92;15.70;;;;;;;;;;4998274;28;20030;-85
2022/12/08 05:48:43;;;;;;;25.13;17.55;;;;;;;;;;5004614;28;20119;-86
2022/12/08 05:51:18;;;;;;;24.30;16.50;;;;;;;;;;5034798;28;20022;-84
2022/12/08 05:53:44;;;;;;;23.20;17.30;;;;;;;;;;5017186;28;20476;-85
2022/12/08 05:56:11;;;;;;;26.02;17.40;;;;;;;;;;5035168;28;20049;-83
2022/12/08 05:58:37;;;;;;;25.08;17.20;;;;;;;;;;5034907;28;20440;-85
2022/12/08 06:01:03;;;;;;;26.67;16.90;;;;;;;;;;5017479;28;20032;-86
2022/12/08 06:03:29;;;;;;;23.38;17.27;;;;;;;;;;5034902;28;20103;-87
2022/12/08 06:05:55;;;;;;;29.95;19.10;;;;;;;;;;5020895;28;20094;-87
2022/12/08 06:08:21;;;;;;;35.97;25.95;;;;;;;;;;5015084;28;20519;-85
2022/12/08 06:10:47;;;;;;;38.67;28.92;;;;;;;;;;4997264;28;20026;-83
2022/12/08 06:13:14;;;;;;;36.75;27.35;;;;;;;;;;5016574;28;20089;-88
2022/12/08 06:15:40;;;;;;;33.58;23.73;;;;;;;;;;5007623;28;20357;-87
2022/12/08 06:18:06;;;;;;;42.65;31.10;;;;;;;;;;5014841;28;20026;-86
2022/12/08 06:20:33;;;;;;;44.70;32.75;;;;;;;;;;5030570;28;20030;-86
2022/12/08 06:22:59;;;;;;;37.55;29.85;;;;;;;;;;5034382;28;20029;-84
2022/12/08 06:25:25;;;;;;;34.65;24.92;;;;;;;;;;5017056;28;20109;-86
2022/12/08 06:27:51;;;;;;;36.08;25.67;;;;;;;;;;5016935;28;20029;-84
2022/12/08 06:30:17;;;;;;;31.30;21.40;;;;;;;;;;5034746;28;20385;-85
2022/12/08 06:32:44;;;;;;;31.15;19.92;;;;;;;;;;5034511;28;20025;-83
2022/12/08 06:35:10;;;;;;;29.23;21.48;;;;;;;;;;5034411;28;20083;-84
2022/12/08 06:37:36;;;;;;;37.38;28.00;;;;;;;;;;5034541;28;20465;-85
2022/12/08 06:40:03;;;;;;;36.05;28.23;;;;;;;;;;5033713;28;20128;-84
2022/12/08 06:42:45;;;;;;;46.00;33.90;;;;;;;;;;5022843;28;20037;-85
2022/12/08 06:45:12;;;;;;;49.65;38.17;;;;;;;;;;5003587;28;20021;-85
2022/12/08 06:47:38;;;;;;;49.53;38.58;;;;;;;;;;5030804;28;20025;-86
2022/12/08 06:50:05;;;;;;;60.08;47.28;;;;;;;;;;5005192;28;20116;-86
2022/12/08 06:52:31;;;;;;;65.88;48.15;;;;;;;;;;5034149;28;20436;-84
2022/12/08 06:54:57;;;;;;;49.38;38.47;;;;;;;;;;5016046;28;20045;-84
2022/12/08 06:57:23;;;;;;;35.70;26.23;;;;;;;;;;5016630;28;20022;-85
2022/12/08 06:59:49;;;;;;;36.58;25.23;;;;;;;;;;5033896;28;20032;-84
2022/12/08 07:02:16;;;;;;;38.65;24.60;;;;;;;;;;5033846;28;20025;-87
2022/12/08 07:04:42;;;;;;;32.70;23.08;;;;;;;;;;5033665;28;20078;-85
2022/12/08 07:07:08;;;;;;;31.33;20.67;;;;;;;;;;5021637;28;20030;-85
2022/12/08 07:09:35;;;;;;;31.35;21.50;;;;;;;;;;5024398;28;20109;-85
2022/12/08 07:12:02;;;;;;;30.48;22.42;;;;;;;;;;5009579;28;20025;-85
2022/12/08 07:14:28;;;;;;;38.92;30.75;;;;;;;;;;5033560;28;20025;-85
2022/12/08 07:16:54;;;;;;;38.53;29.33;;;;;;;;;;5033425;28;20029;-84
2022/12/08 07:19:20;;;;;;;40.35;28.90;;;;;;;;;;5033479;28;20028;-84
2022/12/08 07:21:46;;;;;;;41.83;31.17;;;;;;;;;;5027176;28;20025;-85
2022/12/08 07:24:13;;;;;;;48.60;34.25;;;;;;;;;;5029370;28;20032;-84
2022/12/08 07:26:40;;;;;;;48.47;33.88;;;;;;;;;;5013810;28;20393;-85
2022/12/08 07:29:07;;;;;;;47.28;34.22;;;;;;;;;;4996026;28;20030;-84
2022/12/08 07:31:33;;;;;;;38.00;29.52;;;;;;;;;;5013641;28;20021;-81
2022/12/08 07:33:59;;;;;;;37.53;28.50;;;;;;;;;;5013429;28;20014;-81
2022/12/08 07:36:26;;;;;;;36.78;26.48;;;;;;;;;;5013772;28;20022;-83
2022/12/08 07:38:52;;;;;;;34.42;24.33;;;;;;;;;;5013428;28;20030;-81
2022/12/08 07:41:22;;;;;;;27.50;20.75;;;;;;;;;;4995915;28;20032;-84
2022/12/08 07:43:48;;;;;;;28.52;20.17;;;;;;;;;;5013517;28;20465;-83
2022/12/08 07:46:16;;;;;;;26.30;17.65;;;;;;;;;;5013369;28;20433;-81
2022/12/08 07:48:42;;;;;;;20.45;16.73;;;;;;;;;;5015865;28;20389;-83
2022/12/08 07:51:08;;;;;;;27.70;20.45;;;;;;;;;;5010493;28;20029;-81
2022/12/08 07:53:34;;;;;;;51.33;39.20;;;;;;;;;;5013299;28;20050;-82
2022/12/08 07:56:00;;;;;;;24.95;20.15;;;;;;;;;;5013103;28;20494;-82
2022/12/08 07:58:26;;;;;;;22.48;16.17;;;;;;;;;;5012941;28;20065;-82
2022/12/08 08:00:53;;;;;;;29.13;16.65;;;;;;;;;;5012856;28;20093;-84
2022/12/08 08:03:20;;;;;;;30.50;18.83;;;;;;;;;;5012851;28;20056;-84
2022/12/08 08:05:48;;;;;;;33.78;17.63;;;;;;;;;;5013007;28;20061;-82
2022/12/08 08:08:15;;;;;;;27.77;16.02;;;;;;;;;;4994907;28;20055;-84
2022/12/08 08:10:41;;;;;;;29.45;16.42;;;;;;;;;;5012419;28;20030;-84
2022/12/08 08:13:07;;;;;;;20.83;14.85;;;;;;;;;;5012133;28;20021;-83
2022/12/08 08:15:33;;;;;;;19.63;14.75;;;;;;;;;;5012825;28;20030;-81
2022/12/08 08:17:59;;;;;;;19.55;14.68;;;;;;;;;;4995183;28;20084;-80
2022/12/08 08:20:26;;;;;;;20.35;14.93;;;;;;;;;;5012919;28;20029;-81
2022/12/08 08:22:52;;;;;;;19.23;14.45;;;;;;;;;;4995327;28;20022;-82
2022/12/08 08:25:21;;;;;;;19.30;14.23;;;;;;;;;;5012864;28;20017;-82
2022/12/08 08:27:47;;;;;;;25.02;19.05;;;;;;;;;;5012930;28;20026;-84
2022/12/08 08:30:14;;;;;;;24.83;20.42;;;;;;;;;;5012806;28;20026;-83
2022/12/08 08:32:40;;;;;;;17.05;13.30;;;;;;;;;;5012946;28;20026;-84
2022/12/08 08:35:06;;;;;;;18.67;13.82;;;;;;;;;;5012526;28;20022;-84
2022/12/08 08:37:32;;;;;;;21.85;15.43;;;;;;;;;;5012825;28;20543;-81
2022/12/08 08:39:58;;;;;;;33.20;26.90;;;;;;;;;;5012648;28;20022;-83
2022/12/08 08:42:24;;;;;;;16.15;12.88;;;;;;;;;;5012657;28;20029;-82
2022/12/08 08:44:50;;;;;;;14.68;12.25;;;;;;;;;;5012627;28;20026;-84
2022/12/08 08:47:16;;;;;;;18.40;14.25;;;;;;;;;;5012584;28;20088;-83
2022/12/08 08:49:42;;;;;;;16.23;12.98;;;;;;;;;;5012659;28;20901;-81
2022/12/08 08:52:09;;;;;;;16.00;12.93;;;;;;;;;;5012402;28;20018;-82
2022/12/08 08:54:35;;;;;;;18.98;13.30;;;;;;;;;;5012584;28;20480;-83
2022/12/08 08:57:01;;;;;;;17.38;13.65;;;;;;;;;;5012411;28;20390;-84
2022/12/08 08:59:27;;;;;;;19.73;13.38;;;;;;;;;;5012557;28;20026;-81
2022/12/08 09:01:54;;;;;;;17.48;12.75;;;;;;;;;;5012358;28;20478;-83
2022/12/08 09:04:21;;;;;;;16.27;12.45;;;;;;;;;;4998815;28;20065;-82
2022/12/08 09:06:47;;;;;;;16.77;13.63;;;;;;;;;;4995506;28;20026;-81
2022/12/08 09:09:13;;;;;;;14.82;12.15;;;;;;;;;;5007962;28;20030;-81
2022/12/08 09:11:40;;;;;;;17.55;13.50;;;;;;;;;;5016206;28;20022;-82
2022/12/08 09:14:06;;;;;;;26.20;13.98;;;;;;;;;;5016118;28;20037;-82
2022/12/08 09:16:32;;;;;;;17.23;12.43;;;;;;;;;;5016068;28;20018;-83
2022/12/08 09:18:59;;;;;;;12.85;10.38;;;;;;;;;;5016123;28;20481;-83
2022/12/08 09:21:25;;;;;;;21.35;16.35;;;;;;;;;;4998371;28;20034;-83
2022/12/08 09:23:56;;;;;;;29.65;23.30;;;;;;;;;;4998513;28;20066;-83
2022/12/08 09:26:22;;;;;;;14.68;12.38;;;;;;;;;;5015823;28;20022;-84
2022/12/08 09:28:50;;;;;;;16.98;11.55;;;;;;;;;;5015993;28;20473;-84
2022/12/08 09:31:16;;;;;;;12.88;9.93;;;;;;;;;;5015461;28;20026;-83
2022/12/08 09:33:42;;;;;;;14.52;11.43;;;;;;;;;;4994667;28;20023;-83
2022/12/08 09:36:09;;;;;;;13.98;10.35;;;;;;;;;;5014932;28;20026;-83
2022/12/08 09:38:35;;;;;;;17.92;11.60;;;;;;;;;;5015588;28;20500;-82
2022/12/08 09:41:03;;;;;;;25.00;19.70;;;;;;;;;;5015636;28;20117;-81
2022/12/08 09:43:52;;;;;;;16.25;13.02;;;;;;;;;;4992168;28;20093;-84
2022/12/08 09:46:19;;;;;;;18.83;12.82;;;;;;;;;;4996070;28;20027;-83
2022/12/08 09:48:48;;;;;;;14.02;12.15;;;;;;;;;;4996094;28;20022;-82
2022/12/08 09:51:15;;;;;;;21.10;13.32;;;;;;;;;;4995864;28;20030;-84
2022/12/08 09:54:03;;;;;;;15.43;11.85;;;;;;;;;;4996084;28;20568;-84
2022/12/08 09:56:34;;;;;;;21.35;16.27;;;;;;;;;;4996021;28;20024;-83
2022/12/08 09:59:02;;;;;;;22.33;18.30;;;;;;;;;;4996074;28;20022;-85
2022/12/08 10:01:30;;;;;;;29.25;14.27;;;;;;;;;;4996479;28;20049;-82
2022/12/08 10:03:56;;;;;;;15.20;11.30;;;;;;;;;;5016719;28;20124;-82
2022/12/08 10:06:28;;;;;;;17.65;13.35;;;;;;;;;;5035093;28;20036;-82
2022/12/08 10:09:11;;;;;;;17.90;13.77;;;;;;;;;;5017155;28;20029;-84
2022/12/08 10:11:37;;;;;;;21.95;14.52;;;;;;;;;;5034904;28;20030;-82
2022/12/08 10:14:13;;;;;;;17.80;13.57;;;;;;;;;;5034836;28;20025;-82
2022/12/08 10:16:41;;;;;;;15.75;11.68;;;;;;;;;;5011199;28;20025;-84
2022/12/08 10:19:27;;;;;;;15.07;11.55;;;;;;;;;;4997096;28;20401;-83
2022/12/08 10:21:53;;;;;;;18.52;12.63;;;;;;;;;;5014333;28;20048;-83
2022/12/08 10:24:31;;;;;;;17.88;13.60;;;;;;;;;;5012406;28;20040;-82
2022/12/08 10:26:57;;;;;;;15.30;12.32;;;;;;;;;;5015039;28;20041;-83
2022/12/08 10:29:23;;;;;;;25.83;19.17;;;;;;;;;;5010598;28;20026;-82
2022/12/08 10:31:49;;;;;;;26.63;19.27;;;;;;;;;;5023431;28;20017;-83
2022/12/08 10:34:34;;;;;;;16.55;12.60;;;;;;;;;;5018065;28;20491;-84
2022/12/08 10:37:00;;;;;;;15.25;11.77;;;;;;;;;;5016412;28;20034;-82
2022/12/08 10:39:29;;;;;;;13.18;9.07;;;;;;;;;;5028081;28;20064;-81
2022/12/08 10:42:22;;;;;;;15.10;11.65;;;;;;;;;;5034231;28;20034;-83
2022/12/08 10:44:51;;;;;;;15.73;11.73;;;;;;;;;;5028676;28;20045;-83
2022/12/08 10:47:20;;;;;;;12.77;10.20;;;;;;;;;;5034011;28;20033;-84
2022/12/08 10:49:46;;;;;;;14.27;10.88;;;;;;;;;;5014572;28;20380;-83
2022/12/08 10:52:22;;;;;;;16.33;11.35;;;;;;;;;;5015244;28;20022;-81
2022/12/08 10:54:51;;;;;;;11.90;9.52;;;;;;;;;;5014436;28;20048;-81
2022/12/08 10:57:20;;;;;;;12.70;9.43;;;;;;;;;;5022820;28;20026;-82
2022/12/08 10:59:46;;;;;;;12.43;10.40;;;;;;;;;;5034041;28;20025;-82
2022/12/08 11:02:18;;;;;;;11.75;9.27;;;;;;;;;;5033660;28;20416;-81
2022/12/08 11:04:44;;;;;;;16.00;12.43;;;;;;;;;;5020526;28;20489;-82
2022/12/08 11:07:10;;;;;;;20.75;14.75;;;;;;;;;;5014864;28;20025;-81
2022/12/08 11:09:47;;;;;;;13.77;9.02;;;;;;;;;;5024693;28;20049;-81
2022/12/08 11:12:14;;;;;;;14.75;10.30;;;;;;;;;;4995731;28;20434;-83
2022/12/08 11:14:43;;;;;;;9.68;6.97;;;;;;;;;;5013803;28;20462;-83
2022/12/08 11:17:12;;;;;;;12.77;7.80;;;;;;;;;;5013497;28;20022;-81
2022/12/08 11:19:39;;;;;;;11.18;6.93;;;;;;;;;;5013746;28;20032;-80
2022/12/08 11:22:23;;;;;;;10.93;7.47;;;;;;;;;;5013542;28;20492;-81
2022/12/08 11:25:10;;;;;;;9.23;6.88;;;;;;;;;;5013544;28;20030;-82
2022/12/08 11:27:37;;;;;;;14.43;8.45;;;;;;;;;;5016916;28;20061;-84
2022/12/08 11:30:12;;;;;;;10.77;7.80;;;;;;;;;;5013534;28;20122;-81
2022/12/08 11:32:40;;;;;;;8.32;7.38;;;;;;;;;;5013072;28;20033;-82
2022/12/08 11:35:06;;;;;;;9.35;7.28;;;;;;;;;;5013500;28;20377;-80
2022/12/08 11:37:37;;;;;;;11.98;7.60;;;;;;;;;;5013337;28;20030;-82
2022/12/08 11:40:05;;;;;;;8.90;7.13;;;;;;;;;;5000394;28;20030;-82
2022/12/08 11:42:35;;;;;;;9.73;7.32;;;;;;;;;;5013265;28;20033;-80
2022/12/08 11:45:12;;;;;;;9.25;6.80;;;;;;;;;;5013857;28;20532;-80
2022/12/08 11:47:46;;;;;;;10.40;6.35;;;;;;;;;;5013315;28;20029;-79
2022/12/08 11:50:30;;;;;;;9.55;6.30;;;;;;;;;;5012617;28;20030;-79
2022/12/08 11:52:56;;;;;;;;;;;;;;;;;;5013504;28;20022;-80
2022/12/08 11:55:35;;;;;;;9.90;5.80;;;;;;;;;;5013965;28;19921;-80
2022/12/08 11:58:20;;;;;;;9.00;6.63;;;;;;;;;;5013177;28;20478;-81
2022/12/08 12:00:47;;;;;;;11.60;9.20;;;;;;;;;;5015311;28;20077;-82
2022/12/08 12:03:28;;;;;;;14.70;11.93;;;;;;;;;;5013638;28;20547;-82
2022/12/08 12:05:57;;;;;;;12.00;10.02;;;;;;;;;;5000708;28;20036;-82
2022/12/08 12:08:23;;;;;;;11.15;8.05;;;;;;;;;;5012656;28;20053;-83
2022/12/08 12:11:08;;;;;;;9.73;6.88;;;;;;;;;;5026874;28;20044;-83
2022/12/08 12:13:40;;;;;;;11.10;7.00;;;;;;;;;;5012861;28;20049;-81
2022/12/08 12:16:12;;;;;;;12.27;8.77;;;;;;;;;;5021209;28;20034;-84
2022/12/08 12:18:46;;;;;;;8.18;7.13;;;;;;;;;;4997408;28;20120;-81
2022/12/08 12:21:21;;;;;;;10.07;6.38;;;;;;;;;;4994882;28;20022;-83
2022/12/08 12:23:59;;;;;;;10.50;6.72;;;;;;;;;;5012563;28;20052;-80
2022/12/08 12:26:28;;;;;;;9.75;7.32;;;;;;;;;;5017697;28;20035;-82
2022/12/08 12:28:54;;;;;;;13.20;8.52;;;;;;;;;;5026931;28;20096;-81
2022/12/08 12:31:40;;;;;;;19.05;11.30;;;;;;;;;;5032233;28;20026;-82
2022/12/08 12:34:26;;;;;;;15.85;10.23;;;;;;;;;;5032218;28;20056;-82
2022/12/08 12:37:12;;;;;;;12.85;8.40;;;;;;;;;;5031941;28;20025;-80
2022/12/08 12:39:56;;;;;;;14.32;9.95;;;;;;;;;;4992915;28;20030;-82
2022/12/08 12:42:42;;;;;;;11.55;8.73;;;;;;;;;;4995692;28;20022;-82
2022/12/08 12:45:12;;;;;;;12.23;7.55;;;;;;;;;;5015174;28;20032;-84
2022/12/08 12:47:46;;;;;;;10.00;7.55;;;;;;;;;;5017634;28;20022;-80
2022/12/08 12:50:13;;;;;;;12.63;7.70;;;;;;;;;;5017431;28;20033;-83
2022/12/08 12:52:40;;;;;;;9.85;7.57;;;;;;;;;;5017416;28;20048;-80
2022/12/08 12:55:09;;;;;;;12.55;9.38;;;;;;;;;;4999830;28;20018;-83
2022/12/08 12:57:37;;;;;;;13.15;9.77;;;;;;;;;;4999687;28;20397;-88
2022/12/08 13:00:03;;;;;;;29.60;18.73;;;;;;;;;;5016862;28;20532;-83
2022/12/08 13:02:33;;;;;;;11.93;9.48;;;;;;;;;;5033545;28;20426;-82
2022/12/08 13:05:10;;;;;;;15.48;9.55;;;;;;;;;;5017022;28;20401;-83
2022/12/08 13:07:57;;;;;;;13.82;9.38;;;;;;;;;;5017201;28;20378;-85
2022/12/08 13:10:25;;;;;;;15.80;10.40;;;;;;;;;;5016778;28;20034;-83
2022/12/08 13:13:01;;;;;;;11.88;8.70;;;;;;;;;;5016997;28;20032;-85
2022/12/08 13:15:33;;;;;;;12.98;9.15;;;;;;;;;;5017135;28;20095;-83
2022/12/08 13:17:59;;;;;;;15.68;9.38;;;;;;;;;;5016992;28;20021;-84
2022/12/08 13:20:25;;;;;;;14.45;9.40;;;;;;;;;;5016382;28;20590;-83
2022/12/08 13:23:10;;;;;;;16.08;10.98;;;;;;;;;;5000947;28;20458;-82
2022/12/08 13:25:39;;;;;;;14.73;10.20;;;;;;;;;;4997555;28;20053;-83
2022/12/08 13:28:15;;;;;;;12.30;8.70;;;;;;;;;;4997203;28;20022;-82
2022/12/08 13:30:44;;;;;;;12.82;9.23;;;;;;;;;;4979768;28;20039;-84
2022/12/08 13:33:14;;;;;;;14.98;10.25;;;;;;;;;;4997117;28;20057;-82
2022/12/08 13:35:44;;;;;;;15.35;11.15;;;;;;;;;;4996962;28;20466;-85
2022/12/08 13:38:12;;;;;;;20.92;13.75;;;;;;;;;;4979589;28;20034;-82
2022/12/08 13:40:41;;;;;;;20.00;12.18;;;;;;;;;;4997156;28;20034;-85
2022/12/08 13:43:26;;;;;;;15.77;11.20;;;;;;;;;;4979476;28;20377;-82
2022/12/08 13:45:52;;;;;;;;;;;;;;;;;;4997368;28;20105;-82
2022/12/08 13:48:24;;;;;;;20.65;12.20;;;;;;;;;;4996817;28;20030;-84
2022/12/08 13:50:55;;;;;;;18.60;11.88;;;;;;;;;;4996851;28;20019;-81
2022/12/08 13:53:25;;;;;;;18.17;13.13;;;;;;;;;;4996875;28;20021;-83
2022/12/08 13:55:54;;;;;;;19.63;13.10;;;;;;;;;;4996144;28;20022;-82
2022/12/08 13:58:39;;;;;;;48.92;30.38;;;;;;;;;;4996655;28;20445;-83
2022/12/08 14:01:05;;;;;;;35.83;24.17;;;;;;;;;;4996361;28;20026;-82
2022/12/08 14:03:51;;;;;;;19.30;13.38;;;;;;;;;;5005431;28;20050;-81
2022/12/08 14:06:20;;;;;;;20.73;11.98;;;;;;;;;;4998398;28;20400;-81
2022/12/08 14:08:48;;;;;;;16.95;12.05;;;;;;;;;;5015978;28;20119;-84
2022/12/08 14:11:32;;;;;;;17.63;12.55;;;;;;;;;;5016006;28;20034;-83
2022/12/08 14:13:59;;;;;;;18.85;13.63;;;;;;;;;;5016140;28;20112;-81
2022/12/08 14:16:32;;;;;;;19.73;13.93;;;;;;;;;;5015974;28;20468;-82
2022/12/08 14:19:05;;;;;;;23.42;14.27;;;;;;;;;;5015886;28;20033;-83
2022/12/08 14:21:31;;;;;;;19.25;12.88;;;;;;;;;;4998445;28;20025;-85
2022/12/08 14:24:01;;;;;;;19.10;12.30;;;;;;;;;;4998145;28;20032;-83
2022/12/08 14:26:31;;;;;;;15.68;10.98;;;;;;;;;;5015756;28;20049;-82
2022/12/08 14:28:57;;;;;;;12.60;9.40;;;;;;;;;;5015745;28;20058;-83
2022/12/08 14:31:23;;;;;;;16.50;10.90;;;;;;;;;;5015886;28;20050;-82
2022/12/08 14:33:49;;;;;;;17.55;11.98;;;;;;;;;;5015715;28;20489;-84
2022/12/08 14:36:15;;;;;;;17.15;10.90;;;;;;;;;;5015337;28;20022;-83
2022/12/08 14:38:41;;;;;;;17.90;11.57;;;;;;;;;;5015525;28;20056;-82